Time;durP1;ratioP1;P1;durP2;ratioP2;P2;SDS_P1;SDS_P2;PMS_P1;PMS_P2;Temp;Humidity;BMP_temperature;BMP_pressure;BME280_temperature;BME280_humidity;BME280_pressure;Samples;Min_cycle;Max_cycle;Signal;HPM_P1;HPM_P2
2022/08/05 00:01:38;;;;;;;;;;;;;;;29.10;41.37;100644.41;5002154;28;940;-37
2022/08/05 00:04:04;;;;;;;;;;;;;;;28.93;41.67;100649.25;5002620;28;1200;-38
2022/08/05 00:06:29;;;;;;;;;;;;;;;28.98;41.72;100648.72;5000309;28;2048;-36
2022/08/05 00:08:54;;;;;;;;;;;;;;;28.98;41.72;100641.41;5000544;28;2523;-38
2022/08/05 00:11:20;;;;;;;;;;;;;;;28.95;41.59;100639.91;5011457;28;1062;-36
2022/08/05 00:13:45;;;;;;;;;;;;;;;28.89;42.27;100631.75;5004901;28;971;-38
2022/08/05 00:16:11;;;;;;;;;;;;;;;28.90;41.98;100642.38;5008664;28;1127;-38
2022/08/05 00:18:36;;;;;;;;;;;;;;;28.84;41.60;100630.47;5009406;28;916;-37
2022/08/05 00:21:02;;;;;;;;;;;;;;;28.87;41.82;100633.81;5008726;28;1014;-37
2022/08/05 00:23:27;;;;;;;;;;;;;;;28.90;41.57;100636.13;5002381;28;1002;-38
2022/08/05 00:25:52;;;;;;;;;;;;;;;28.86;41.80;100633.00;5001347;28;1975;-39
2022/08/05 00:28:17;;;;;;;;;;;;;;;28.87;41.91;100628.41;5001062;28;1285;-38
2022/08/05 00:30:43;;;;;;;;;;;;;;;28.89;41.56;100624.47;4999477;28;915;-37
2022/08/05 00:33:08;;;;;;;;;;;;;;;28.98;41.74;100622.47;5008293;28;963;-38
2022/08/05 00:35:33;;;;;;;;;;;;;;;28.82;41.94;100626.28;5007220;28;987;-38
2022/08/05 00:37:59;;;;;;;;;;;;;;;28.86;41.95;100624.88;5008925;28;2286;-37
2022/08/05 00:40:24;;;;;;;;;;;;;;;28.94;41.91;100624.72;5009174;28;1026;-38
2022/08/05 00:42:50;;;;;;;;;;;;;;;28.84;41.76;100624.22;5005623;28;905;-38
2022/08/05 00:45:15;;;;;;;;;;;;;;;28.81;42.36;100624.63;5005099;28;1902;-38
2022/08/05 00:47:40;;;;;;;;;;;;;;;28.85;41.74;100624.03;5001216;28;1019;-38
2022/08/05 00:50:06;;;;;;;;;;;;;;;28.82;41.92;100620.88;5002307;28;1125;-38
2022/08/05 00:52:32;;;;;;;;;;;;;;;28.80;42.29;100615.66;5000263;28;1058;-38
2022/08/05 00:54:57;;;;;;;;;;;;;;;28.75;41.94;100614.56;5000434;28;852;-38
2022/08/05 00:57:22;;;;;;;;;;;;;;;28.87;41.79;100613.00;5016553;28;1137;-38
2022/08/05 00:59:47;;;;;;;;;;;;;;;28.77;42.10;100616.06;5000299;28;952;-38
2022/08/05 01:02:13;;;;;;;;;;;;;;;28.87;41.79;100610.28;5026122;28;1223;-38
2022/08/05 01:04:38;;;;;;;;;;;;;;;28.91;41.62;100613.44;4998865;28;1894;-38
2022/08/05 01:07:04;;;;;;;;;;;;;;;28.79;41.79;100603.19;5007381;28;953;-38
2022/08/05 01:09:29;;;;;;;;;;;;;;;28.84;41.95;100610.69;5021235;28;2546;-38
2022/08/05 01:11:54;;;;;;;;;;;;;;;28.81;41.90;100603.78;5011335;28;1010;-37
2022/08/05 01:14:26;;;;;;;;;;;;;;;28.81;41.92;100606.50;5025277;28;1074;-37
2022/08/05 01:16:53;;;;;;;;;;;;;;;28.84;42.06;100616.94;5001953;28;1062;-38
2022/08/05 01:19:23;;;;;;;;;;;;;;;28.73;41.83;100612.91;5020359;28;897;-38
2022/08/05 01:22:07;;;;;;;;;;;;;;;28.78;42.25;100609.59;4993498;28;1078;-37
2022/08/05 01:24:35;;;;;;;;;;;;;;;28.71;41.89;100612.25;5000505;28;1887;-36
2022/08/05 01:27:00;;;;;;;;;;;;;;;28.76;42.51;100597.31;4999131;28;1086;-37
2022/08/05 01:29:42;;;;;;;;;;;;;;;28.75;42.53;100610.00;5006129;28;967;-37
2022/08/05 01:32:08;;;;;;;;;;;;;;;28.71;42.24;100598.72;5009561;28;1070;-36
2022/08/05 01:34:35;;;;;;;;;;;;;;;28.79;42.52;100599.63;5024265;28;1069;-36
2022/08/05 01:37:26;;;;;;;;;;;;;;;28.68;41.76;100599.13;5005489;28;1006;-37
2022/08/05 01:39:53;;;;;;;;;;;;;;;28.67;42.63;100604.75;5002372;28;1232;-37
2022/08/05 01:42:19;;;;;;;;;;;;;;;28.70;42.33;100596.22;4991323;28;1034;-37
2022/08/05 01:44:44;;;;;;;;;;;;;;;28.76;41.74;100595.41;5001161;28;1894;-37
2022/08/05 01:47:09;;;;;;;;;;;;;;;28.83;42.07;100595.47;4999549;28;1065;-37
2022/08/05 01:49:35;;;;;;;;;;;;;;;28.74;41.81;100589.41;5013646;28;1018;-38
2022/08/05 01:52:00;;;;;;;;;;;;;;;28.76;42.41;100591.91;5025484;28;1117;-37
2022/08/05 01:54:35;;;;;;;;;;;;;;;28.75;41.85;100593.75;5006376;28;971;-36
2022/08/05 01:57:00;;;;;;;;;;;;;;;28.64;41.76;100595.16;5025001;28;1006;-38
2022/08/05 01:59:25;;;;;;;;;;;;;;;28.71;41.72;100590.59;4986670;28;995;-38
2022/08/05 02:01:51;;;;;;;;;;;;;;;28.64;41.50;100597.88;5010210;28;991;-38
2022/08/05 02:04:16;;;;;;;;;;;;;;;28.89;41.22;100593.84;5009747;28;936;-37
2022/08/05 02:06:41;;;;;;;;;;;;;;;28.90;41.40;100593.66;4986989;28;1964;-38
2022/08/05 02:09:07;;;;;;;;;;;;;;;28.93;40.95;100587.84;5004036;28;2343;-37
2022/08/05 02:11:44;;;;;;;;;;;;;;;28.96;41.19;100592.84;5003662;28;1003;-37
2022/08/05 02:14:15;;;;;;;;;;;;;;;28.85;41.22;100591.53;5024025;28;1105;-37
2022/08/05 02:16:44;;;;;;;;;;;;;;;28.83;40.78;100588.19;5010579;28;1069;-37
2022/08/05 02:19:16;;;;;;;;;;;;;;;28.98;40.70;100589.97;4998695;28;944;-37
2022/08/05 02:21:47;;;;;;;;;;;;;;;28.94;40.68;100594.94;4998616;28;1074;-37
2022/08/05 02:24:17;;;;;;;;;;;;;;;28.88;41.41;100594.91;4997039;28;1142;-37
2022/08/05 02:26:48;;;;;;;;;;;;;;;28.87;40.71;100595.91;5009320;28;1910;-37
2022/08/05 02:29:14;;;;;;;;;;;;;;;28.84;40.81;100595.28;5008879;28;983;-37
2022/08/05 02:31:40;;;;;;;;;;;;;;;28.92;40.91;100599.72;5014453;28;1188;-38
2022/08/05 02:34:10;;;;;;;;;;;;;;;28.88;40.63;100594.91;5018534;28;1046;-38
2022/08/05 02:36:36;;;;;;;;;;;;;;;29.01;40.86;100603.09;5014942;28;1129;-37
2022/08/05 02:39:02;;;;;;;;;;;;;;;29.05;40.92;100603.53;5000771;28;2608;-38
2022/08/05 02:41:27;;;;;;;;;;;;;;;28.97;40.34;100593.72;5012258;28;1259;-38
2022/08/05 02:43:52;;;;;;;;;;;;;;;29.03;40.81;100597.50;5022571;28;892;-37
2022/08/05 02:46:17;;;;;;;;;;;;;;;28.89;40.22;100591.16;5024703;28;2021;-37
2022/08/05 02:48:43;;;;;;;;;;;;;;;28.94;40.73;100594.94;5002914;28;1121;-38
2022/08/05 02:51:08;;;;;;;;;;;;;;;28.91;40.58;100589.91;4985761;28;980;-38
2022/08/05 02:53:33;;;;;;;;;;;;;;;28.99;40.50;100596.22;5020194;28;959;-37
2022/08/05 02:55:59;;;;;;;;;;;;;;;29.13;40.26;100597.97;5004918;28;1091;-37
2022/08/05 02:58:24;;;;;;;;;;;;;;;29.03;39.90;100592.91;5024514;28;1018;-38
2022/08/05 03:00:49;;;;;;;;;;;;;;;29.05;39.63;100595.41;5021437;28;970;-38
2022/08/05 03:03:18;;;;;;;;;;;;;;;29.08;39.90;100598.56;5009600;28;1058;-38
2022/08/05 03:05:43;;;;;;;;;;;;;;;29.11;39.99;100597.34;5022669;28;1906;-38
2022/08/05 03:08:09;;;;;;;;;;;;;;;29.07;40.23;100599.63;4984230;28;2352;-37
2022/08/05 03:10:34;;;;;;;;;;;;;;;28.94;39.91;100603.06;5021595;28;1509;-36
2022/08/05 03:13:00;;;;;;;;;;;;;;;29.02;40.07;100604.78;5025652;28;1255;-37
2022/08/05 03:15:25;;;;;;;;;;;;;;;28.87;40.47;100604.03;5006269;28;1125;-37
2022/08/05 03:17:54;;;;;;;;;;;;;;;28.98;40.23;100605.41;5012889;28;1208;-37
2022/08/05 03:20:19;;;;;;;;;;;;;;;29.03;40.19;100611.06;5001208;28;867;-38
2022/08/05 03:22:44;;;;;;;;;;;;;;;29.00;40.06;100614.97;5000546;28;1006;-38
2022/08/05 03:25:10;;;;;;;;;;;;;;;28.95;40.12;100610.13;5001931;28;1976;-37
2022/08/05 03:27:35;;;;;;;;;;;;;;;29.04;40.07;100613.56;5019996;28;971;-37
2022/08/05 03:30:00;;;;;;;;;;;;;;;29.14;39.69;100615.06;5001900;28;1173;-38
2022/08/05 03:32:25;;;;;;;;;;;;;;;29.24;39.46;100615.53;5014289;28;1288;-37
2022/08/05 03:34:51;;;;;;;;;;;;;;;29.17;39.70;100615.50;5015158;28;1263;-38
2022/08/05 03:37:16;;;;;;;;;;;;;;;29.00;39.96;100614.97;5029794;28;2288;-37
2022/08/05 03:39:55;;;;;;;;;;;;;;;28.40;41.43;100616.19;5007675;28;1034;-35
2022/08/05 03:42:20;;;;;;;;;;;;;;;28.35;41.18;100616.78;5001931;28;999;-35
2022/08/05 03:44:45;;;;;;;;;;;;;;;27.96;42.31;100618.06;5006799;28;1898;-35
2022/08/05 03:47:10;;;;;;;;;;;;;;;27.94;42.55;100612.84;5007435;28;951;-35
2022/08/05 03:49:36;;;;;;;;;;;;;;;27.74;43.31;100618.84;5002163;28;1165;-36
2022/08/05 03:52:01;;;;;;;;;;;;;;;27.67;44.03;100615.22;4998797;28;1091;-36
2022/08/05 03:54:29;;;;;;;;;;;;;;;27.59;44.54;100605.34;5023063;28;1129;-39
2022/08/05 03:56:54;;;;;;;;;;;;;;;27.88;42.34;100616.28;5007433;28;1317;-41
2022/08/05 03:59:23;;;;;;;;;;;;;;;28.06;41.98;100618.56;5012410;28;1123;-38
2022/08/05 04:01:48;;;;;;;;;;;;;;;27.66;43.44;100615.41;5000885;28;1022;-37
2022/08/05 04:04:14;;;;;;;;;;;;;;;27.89;40.25;100611.72;5023731;28;1084;-41
2022/08/05 04:06:39;;;;;;;;;;;;;;;27.98;40.02;100616.81;5015366;28;1951;-41
2022/08/05 04:09:05;;;;;;;;;;;;;;;27.95;39.39;100616.38;5003051;28;1141;-41
2022/08/05 04:11:30;;;;;;;;;;;;;;;28.03;38.68;100624.34;5022779;28;1500;-40
2022/08/05 04:13:55;;;;;;;;;;;;;;;27.83;40.21;100616.03;5016881;28;1458;-41
2022/08/05 04:16:21;;;;;;;;;;;;;;;27.26;41.13;100611.16;5020337;28;1152;-40
2022/08/05 04:18:46;;;;;;;;;;;;;;;27.54;38.64;100618.59;5031326;28;1140;-39
2022/08/05 04:21:11;;;;;;;;;;;;;;;27.77;35.90;100611.38;5003976;28;975;-41
2022/08/05 04:23:37;;;;;;;;;;;;;;;27.81;34.59;100607.28;5012021;28;1030;-41
2022/08/05 04:26:02;;;;;;;;;;;;;;;27.58;36.66;100603.66;5015474;28;1906;-39
2022/08/05 04:28:27;;;;;;;;;;;;;;;27.68;39.90;100607.94;5002846;28;1019;-38
2022/08/05 04:30:53;;;;;;;;;;;;;;;27.72;38.41;100611.97;5003357;28;1150;-40
2022/08/05 04:33:18;;;;;;;;;;;;;;;28.15;38.88;100613.00;5001303;28;1105;-40
2022/08/05 04:35:43;;;;;;;;;;;;;;;28.04;38.23;100608.97;5005240;28;1166;-40
2022/08/05 04:38:08;;;;;;;;;;;;;;;27.57;40.30;100611.97;5006308;28;1261;-39
2022/08/05 04:40:34;;;;;;;;;;;;;;;28.05;39.89;100618.75;5014223;28;1189;-39
2022/08/05 04:42:59;;;;;;;;;;;;;;;27.99;39.49;100610.38;5017730;28;986;-40
2022/08/05 04:45:25;;;;;;;;;;;;;;;28.26;39.65;100620.59;5000459;28;1948;-39
2022/08/05 04:47:50;;;;;;;;;;;;;;;28.10;39.80;100616.31;5011559;28;999;-39
2022/08/05 04:50:16;;;;;;;;;;;;;;;28.14;39.93;100614.91;5018271;28;1157;-39
2022/08/05 04:52:41;;;;;;;;;;;;;;;28.16;39.20;100615.53;5018482;28;1152;-38
2022/08/05 04:55:07;;;;;;;;;;;;;;;28.28;39.67;100617.75;5009646;28;1108;-38
2022/08/05 04:57:32;;;;;;;;;;;;;;;28.12;39.80;100616.97;5009847;28;1031;-38
2022/08/05 04:59:57;;;;;;;;;;;;;;;28.20;39.10;100613.28;5014945;28;1102;-38
2022/08/05 05:02:23;;;;;;;;;;;;;;;28.15;39.25;100607.59;5017928;28;1137;-39
2022/08/05 05:04:48;;;;;;;;;;;;;;;28.15;39.13;100611.16;5017306;28;1965;-39
2022/08/05 05:07:14;;;;;;;;;;;;;;;28.18;38.75;100608.06;5017279;28;1105;-40
2022/08/05 05:09:39;;;;;;;;;;;;;;;28.26;38.46;100604.38;5016632;28;1372;-40
2022/08/05 05:12:05;;;;;;;;;;;;;;;28.22;34.18;100601.25;5010784;28;1030;-39
2022/08/05 05:14:30;;;;;;;;;;;;;;;28.24;36.16;100598.34;5010142;28;1332;-41
2022/08/05 05:16:55;;;;;;;;;;;;;;;28.32;36.80;100602.78;5009089;28;1054;-39
2022/08/05 05:19:21;;;;;;;;;;;;;;;28.39;37.47;100611.81;5013954;28;990;-39
2022/08/05 05:21:46;;;;;;;;;;;;;;;28.39;37.40;100600.16;5001084;28;971;-39
2022/08/05 05:24:13;;;;;;;;;;;;;;;28.29;37.68;100603.16;5012020;28;1129;-39
2022/08/05 05:26:38;;;;;;;;;;;;;;;28.24;37.97;100604.56;5006927;28;1915;-39
2022/08/05 05:29:03;;;;;;;;;;;;;;;28.28;37.80;100598.81;5017295;28;978;-39
2022/08/05 05:31:29;;;;;;;;;;;;;;;28.31;38.11;100603.81;5015907;28;983;-38
2022/08/05 05:33:54;;;;;;;;;;;;;;;28.32;38.33;100591.94;5009784;28;1057;-37
2022/08/05 05:36:19;;;;;;;;;;;;;;;28.58;37.73;100593.22;5010857;28;1118;-39
2022/08/05 05:38:45;;;;;;;;;;;;;;;28.40;38.28;100589.13;5017143;28;1197;-39
2022/08/05 05:41:10;;;;;;;;;;;;;;;28.38;38.26;100593.09;5017320;28;1011;-39
2022/08/05 05:43:35;;;;;;;;;;;;;;;28.55;38.21;100588.19;5013824;28;1261;-39
2022/08/05 05:46:01;;;;;;;;;;;;;;;28.86;37.58;100584.25;5012865;28;1910;-36
2022/08/05 05:48:26;;;;;;;;;;;;;;;28.86;37.74;100589.69;5011410;28;1002;-38
2022/08/05 05:50:51;;;;;;;;;;;;;;;29.02;36.44;100583.13;4998890;28;1066;-37
2022/08/05 05:53:16;;;;;;;;;;;;;;;28.81;36.76;100590.25;5010818;28;1105;-36
2022/08/05 05:55:42;;;;;;;;;;;;;;;28.75;36.92;100590.22;5015998;28;1014;-37
2022/08/05 05:58:07;;;;;;;;;;;;;;;28.92;36.63;100588.03;5006185;28;1232;-39
2022/08/05 06:00:32;;;;;;;;;;;;;;;28.86;36.89;100592.38;5016289;28;998;-36
2022/08/05 06:02:59;;;;;;;;;;;;;;;29.19;37.32;100591.75;5012819;28;1354;-37
2022/08/05 06:05:24;;;;;;;;;;;;;;;29.15;36.91;100595.91;5012241;28;1957;-35
2022/08/05 06:07:49;;;;;;;;;;;;;;;29.03;38.19;100592.91;5011885;28;1209;-33
2022/08/05 06:10:15;;;;;;;;;;;;;;;28.97;37.55;100591.00;5012118;28;1272;-36
2022/08/05 06:12:40;;;;;;;;;;;;;;;29.09;37.55;100589.41;5007029;28;1089;-37
2022/08/05 06:15:06;;;;;;;;;;;;;;;29.06;37.54;100592.50;5003257;28;1046;-35
2022/08/05 06:17:31;;;;;;;;;;;;;;;29.27;38.34;100601.59;5005937;28;1069;-37
2022/08/05 06:19:56;;;;;;;;;;;;;;;29.06;37.12;100600.63;5000383;28;1062;-36
2022/08/05 06:22:23;;;;;;;;;;;;;;;29.09;38.17;100591.28;5003002;28;1031;-38
2022/08/05 06:24:48;;;;;;;;;;;;;;;29.22;38.13;100598.63;5000112;28;1914;-35
2022/08/05 06:27:13;;;;;;;;;;;;;;;29.11;38.30;100588.38;5000177;28;1126;-37
2022/08/05 06:29:39;;;;;;;;;;;;;;;29.07;37.50;100590.66;4997870;28;1007;-38
2022/08/05 06:32:04;;;;;;;;;;;;;;;29.05;38.15;100588.13;4997643;28;1134;-38
2022/08/05 06:34:29;;;;;;;;;;;;;;;28.90;37.16;100596.34;5010463;28;1030;-37
2022/08/05 06:36:55;;;;;;;;;;;;;;;28.77;35.21;100593.56;5010193;28;994;-37
2022/08/05 06:39:20;;;;;;;;;;;;;;;28.43;35.23;100594.16;5004702;28;1138;-37
2022/08/05 06:41:45;;;;;;;;;;;;;;;28.63;34.52;100600.78;4999545;28;979;-39
2022/08/05 06:44:10;;;;;;;;;;;;;;;28.44;34.28;100598.56;5012252;28;1353;-39
2022/08/05 06:46:36;;;;;;;;;;;;;;;28.54;35.77;100608.19;5005581;28;1960;-39
2022/08/05 06:49:01;;;;;;;;;;;;;;;28.60;36.46;100602.81;5003856;28;1042;-39
2022/08/05 06:51:26;;;;;;;;;;;;;;;28.82;36.44;100604.63;5005681;28;967;-38
2022/08/05 06:53:52;;;;;;;;;;;;;;;28.81;36.37;100602.97;5001606;28;987;-38
2022/08/05 06:56:18;;;;;;;;;;;;;;;28.86;36.28;100611.34;5001934;28;1058;-38
2022/08/05 06:58:43;;;;;;;;;;;;;;;28.84;36.55;100611.50;5006551;28;1046;-37
2022/08/05 07:01:09;;;;;;;;;;;;;;;28.91;36.76;100610.75;5006009;28;1027;-35
2022/08/05 07:03:34;;;;;;;;;;;;;;;28.91;36.90;100611.56;5012729;28;1150;-35
2022/08/05 07:06:03;;;;;;;;;;;;;;;29.07;36.74;100621.28;5002423;28;1967;-38
2022/08/05 07:08:28;;;;;;;;;;;;;;;29.15;37.05;100617.56;5001641;28;999;-37
2022/08/05 07:10:54;;;;;;;;;;;;;;;29.14;37.12;100615.91;5000517;28;1133;-36
2022/08/05 07:18:50;;;;;;;;;;;;;;;29.19;37.32;100615.28;5009919;28;869;-37
2022/08/05 07:21:15;;;;;;;;;;;;;;;29.25;37.70;100613.63;4997824;28;1030;-35
2022/08/05 07:23:40;;;;;;;;;;;;;;;29.25;37.38;100616.34;4997604;28;1098;-37
2022/08/05 07:26:06;;;;;;;;;;;;;;;29.40;37.19;100617.06;4997082;28;1910;-37
2022/08/05 07:28:31;;;;;;;;;;;;;;;29.39;36.98;100623.53;5006190;28;1149;-37
2022/08/05 07:30:56;;;;;;;;;;;;;;;29.42;37.22;100620.41;5003527;28;999;-38
2022/08/05 07:33:22;;;;;;;;;;;;;;;29.35;37.16;100619.53;5002424;28;1038;-37
2022/08/05 07:35:47;;;;;;;;;;;;;;;29.40;37.40;100625.19;5002469;28;1053;-37
2022/08/05 07:38:15;;;;;;;;;;;;;;;29.45;37.40;100614.59;4999860;28;999;-36
2022/08/05 07:40:41;;;;;;;;;;;;;;;29.51;37.13;100615.63;4999702;28;964;-36
2022/08/05 07:43:06;;;;;;;;;;;;;;;29.60;37.36;100610.06;5001893;28;1130;-36
2022/08/05 07:45:31;;;;;;;;;;;;;;;29.68;37.19;100616.16;5001455;28;1898;-35
2022/08/05 07:47:57;;;;;;;;;;;;;;;29.66;36.85;100612.78;5006499;28;1231;-38
2022/08/05 07:50:22;;;;;;;;;;;;;;;29.58;36.99;100608.38;5016930;28;1283;-38
2022/08/05 07:52:47;;;;;;;;;;;;;;;29.61;37.29;100611.75;5015636;28;1308;-36
2022/08/05 07:55:13;;;;;;;;;;;;;;;29.53;37.25;100604.63;5018969;28;1244;-39
2022/08/05 07:57:38;;;;;;;;;;;;;;;29.49;37.33;100611.47;5016732;28;1260;-37
2022/08/05 08:00:04;;;;;;;;;;;;;;;29.41;37.22;100599.75;5018698;28;1232;-38
2022/08/05 08:02:29;;;;;;;;;;;;;;;29.48;37.02;100598.97;5012239;28;986;-38
2022/08/05 08:04:56;;;;;;;;;;;;;;;29.47;37.33;100606.25;5015307;28;1907;-38
2022/08/05 08:07:21;;;;;;;;;;;;;;;29.56;37.76;100602.31;5015434;28;1621;-38
2022/08/05 08:09:46;;;;;;;;;;;;;;;29.38;37.24;100608.28;5008923;28;1057;-39
2022/08/05 08:12:14;;;;;;;;;;;;;;;29.38;38.28;100602.88;5009040;28;1061;-37
2022/08/05 08:14:40;;;;;;;;;;;;;;;29.41;37.60;100602.47;5019264;28;1058;-39
2022/08/05 08:17:09;;;;;;;;;;;;;;;29.74;37.87;100600.09;5002086;28;1242;-39
2022/08/05 08:19:36;;;;;;;;;;;;;;;29.64;37.48;100601.34;5009190;28;1052;-39
2022/08/05 08:22:02;;;;;;;;;;;;;;;29.75;37.70;100612.59;5011542;28;1277;-38
2022/08/05 08:24:27;;;;;;;;;;;;;;;29.88;37.34;100606.41;5005933;28;1122;-41
2022/08/05 08:26:52;;;;;;;;;;;;;;;29.69;37.02;100606.16;5019848;28;1887;-38
2022/08/05 08:29:17;;;;;;;;;;;;;;;29.53;37.37;100596.47;5013738;28;963;-39
2022/08/05 08:31:43;;;;;;;;;;;;;;;29.35;35.59;100595.16;5010452;28;991;-40
2022/08/05 08:34:08;;;;;;;;;;;;;;;28.90;34.52;100590.09;5016877;28;1245;-39
2022/08/05 08:36:33;;;;;;;;;;;;;;;28.57;34.15;100586.16;5018569;28;1335;-38
2022/08/05 08:38:58;;;;;;;;;;;;;;;28.65;33.71;100582.44;5009270;28;970;-38
2022/08/05 08:41:24;;;;;;;;;;;;;;;28.73;33.22;100591.25;5014417;28;1185;-38
2022/08/05 08:43:49;;;;;;;;;;;;;;;28.83;36.55;100584.63;5000477;28;1089;-38
2022/08/05 08:46:14;;;;;;;;;;;;;;;24.78;43.95;100581.09;5020546;28;1898;-38
2022/08/05 08:48:40;;;;;;;;;;;;;;;22.60;49.05;100579.66;5010679;28;1034;-39
2022/08/05 08:51:05;;;;;;;;;;;;;;;24.23;48.92;100580.78;5020322;28;1010;-39
2022/08/05 08:53:37;;;;;;;;;;;;;;;24.65;48.89;100578.94;5021270;28;1057;-39
2022/08/05 08:56:03;;;;;;;;;;;;;;;24.90;48.70;100586.97;5014628;28;1013;-40
2022/08/05 08:58:28;;;;;;;;;;;;;;;24.37;50.02;100573.91;5006222;28;1163;-39
2022/08/05 09:00:54;;;;;;;;;;;;;;;24.26;50.48;100581.31;5005348;28;1133;-39
2022/08/05 09:03:19;;;;;;;;;;;;;;;23.93;51.22;100581.25;5021624;28;1034;-39
2022/08/05 09:05:45;;;;;;;;;;;;;;;23.60;51.65;100577.50;5031254;28;1901;-39
2022/08/05 09:08:10;;;;;;;;;;;;;;;23.16;52.75;100572.25;5020733;28;1030;-36
2022/08/05 09:10:35;;;;;;;;;;;;;;;23.11;52.65;100573.59;5005802;28;1162;-39
2022/08/05 09:13:00;;;;;;;;;;;;;;;23.99;50.21;100574.38;5027112;28;1090;-37
2022/08/05 09:15:26;;;;;;;;;;;;;;;23.43;49.26;100576.59;5004689;28;1101;-37
2022/08/05 09:17:51;;;;;;;;;;;;;;;22.74;51.29;100570.19;5017392;28;927;-36
2022/08/05 09:20:17;;;;;;;;;;;;;;;22.60;51.49;100571.63;5029239;28;1072;-37
2022/08/05 09:23:00;;;;;;;;;;;;;;;22.59;51.25;100567.22;5005924;28;856;-36
2022/08/05 09:25:26;;;;;;;;;;;;;;;23.27;50.52;100566.63;5008410;28;1903;-36
2022/08/05 09:27:51;;;;;;;;;;;;;;;21.70;51.08;100401.09;5011796;28;1126;-38
2022/08/05 09:30:16;;;;;;;;;;;;;;;23.09;50.71;100555.94;5004991;28;948;-38
2022/08/05 09:32:42;;;;;;;;;;;;;;;23.29;50.19;100564.59;5010274;28;952;-39
2022/08/05 09:35:13;;;;;;;;;;;;;;;23.57;50.07;100563.56;5017584;28;880;-37
2022/08/05 09:37:48;;;;;;;;;;;;;;;22.66;51.96;100562.09;5011770;28;1041;-38
2022/08/05 09:40:29;;;;;;;;;;;;;;;22.21;53.51;100554.03;5004421;28;1164;-38
2022/08/05 09:42:55;;;;;;;;;;;;;;;22.56;52.90;100559.47;5009780;28;987;-38
2022/08/05 09:45:20;;;;;;;;;;;;;;;22.31;53.83;100561.97;5015890;28;1919;-37
2022/08/05 09:47:45;;;;;;;;;;;;;;;22.48;53.53;100554.06;5004924;28;960;-40
2022/08/05 09:50:11;;;;;;;;;;;;;;;21.15;57.39;100543.69;5015562;28;1138;-38
2022/08/05 09:52:36;;;;;;;;;;;;;;;20.73;59.43;100542.28;5032827;28;1410;-36
2022/08/05 09:55:05;;;;;;;;;;;;;;;20.58;60.34;100554.41;5007888;28;1190;-39
2022/08/05 09:57:40;;;;;;;;;;;;;;;21.02;57.34;100553.91;5006516;28;1208;-38
2022/08/05 10:00:16;;;;;;;;;;;;;;;21.15;56.72;100551.72;5009501;28;1018;-37
2022/08/05 10:02:44;;;;;;;;;;;;;;;23.14;57.06;100553.63;5008352;28;1270;-37
2022/08/05 10:05:20;;;;;;;;;;;;;;;24.09;54.35;100558.91;5011873;28;1902;-38
2022/08/05 10:07:55;;;;;;;;;;;;;;;24.57;53.29;100556.41;5006114;28;1232;-38
2022/08/05 10:10:21;;;;;;;;;;;;;;;24.81;52.23;100562.75;5011096;28;1246;-38
2022/08/05 10:12:51;;;;;;;;;;;;;;;25.07;51.28;100560.88;5016888;28;1228;-38
2022/08/05 10:15:22;;;;;;;;;;;;;;;25.20;50.84;100565.69;5012380;28;943;-35
2022/08/05 10:18:07;;;;;;;;;;;;;;;26.07;46.57;100562.19;5006963;28;1082;-39
2022/08/05 10:20:34;;;;;;;;;;;;;;;26.86;42.82;100560.97;5011457;28;1662;-38
2022/08/05 10:22:59;;;;;;;;;;;;;;;27.31;40.81;100560.13;5017387;28;885;-38
2022/08/05 10:25:25;;;;;;;;;;;;;;;27.61;39.69;100570.03;5016986;28;1906;-39
2022/08/05 10:27:52;;;;;;;;;;;;;;;27.78;38.91;100567.13;5016866;28;1036;-38
2022/08/05 10:30:17;;;;;;;;;;;;;;;27.91;38.10;100567.25;5016828;28;1058;-38
2022/08/05 10:32:43;;;;;;;;;;;;;;;28.08;37.86;100561.56;5016790;28;1038;-38
2022/08/05 10:35:08;;;;;;;;;;;;;;;27.76;37.57;100556.50;5013315;28;880;-39
2022/08/05 10:37:33;;;;;;;;;;;;;;;27.67;37.11;100563.03;5016471;28;1030;-40
2022/08/05 10:40:00;;;;;;;;;;;;;;;27.60;36.79;100561.09;5016867;28;1042;-39
2022/08/05 10:42:25;;;;;;;;;;;;;;;27.77;36.65;100558.19;5016419;28;1508;-38
2022/08/05 10:44:51;;;;;;;;;;;;;;;28.03;36.44;100556.75;5016678;28;1902;-39
2022/08/05 10:47:16;;;;;;;;;;;;;;;28.05;36.62;100551.16;5027367;28;857;-39
2022/08/05 10:50:01;;;;;;;;;;;;;;;28.09;36.29;100558.66;5003715;28;1402;-39
2022/08/05 10:52:42;;;;;;;;;;;;;;;28.11;36.17;100553.91;5011965;28;1106;-39
2022/08/05 10:55:12;;;;;;;;;;;;;;;28.28;35.82;100548.22;5008379;28;1197;-38
2022/08/05 10:57:40;;;;;;;;;;;;;;;28.26;35.79;100539.47;5013245;28;1234;-38
2022/08/05 11:00:18;;;;;;;;;;;;;;;28.18;36.03;100545.84;5016067;28;980;-39
2022/08/05 11:03:01;;;;;;;;;;;;;;;28.14;35.27;100543.75;5004784;28;943;-38
2022/08/05 11:05:27;;;;;;;;;;;;;;;28.03;35.89;100545.13;5016321;28;1898;-39
2022/08/05 11:07:59;;;;;;;;;;;;;;;27.96;36.06;100547.75;5015316;28;1344;-38
2022/08/05 11:10:25;;;;;;;;;;;;;;;28.18;35.57;100548.56;5009490;28;1007;-37
2022/08/05 11:12:50;;;;;;;;;;;;;;;28.22;35.23;100546.31;5012291;28;1042;-38
2022/08/05 11:15:15;;;;;;;;;;;;;;;28.08;35.42;100548.06;5015754;28;1022;-40
2022/08/05 11:17:41;;;;;;;;;;;;;;;28.17;35.25;100538.78;5016154;28;1354;-37
2022/08/05 11:20:07;;;;;;;;;;;;;;;28.29;34.96;100547.22;5005233;28;1037;-38
2022/08/05 11:22:39;;;;;;;;;;;;;;;28.53;34.15;100541.59;5010077;28;1035;-39
2022/08/05 11:25:23;;;;;;;;;;;;;;;28.66;34.09;100540.84;5011111;28;1902;-38
2022/08/05 11:27:48;;;;;;;;;;;;;;;28.82;33.73;100542.38;5013446;28;1015;-40
2022/08/05 11:30:13;;;;;;;;;;;;;;;28.76;33.81;100533.16;5015654;28;1065;-39
2022/08/05 11:32:38;;;;;;;;;;;;;;;28.90;33.87;100531.38;5009771;28;1212;-39
2022/08/05 11:35:04;;;;;;;;;;;;;;;28.76;34.22;100535.88;5014244;28;1298;-40
2022/08/05 11:37:38;;;;;;;;;;;;;;;28.88;34.31;100536.16;5011782;28;1149;-40
2022/08/05 11:40:04;;;;;;;;;;;;;;;28.91;33.99;100521.38;5011594;28;1050;-41
2022/08/05 11:42:33;;;;;;;;;;;;;;;28.32;39.17;100518.91;5006247;28;1063;-39
2022/08/05 11:45:04;;;;;;;;;;;;;;;28.58;36.36;100520.16;5005775;28;1973;-38
2022/08/05 11:47:31;;;;;;;;;;;;;;;27.41;37.51;100523.88;5003655;28;956;-38
2022/08/05 11:49:56;;;;;;;;;;;;;;;26.72;38.88;100524.03;5004866;28;1304;-40
2022/08/05 11:52:23;;;;;;;;;;;;;;;26.06;39.85;100523.59;5009143;28;955;-39
2022/08/05 11:54:49;;;;;;;;;;;;;;;25.71;40.59;100524.03;5014992;28;1137;-39
2022/08/05 11:57:14;;;;;;;;;;;;;;;25.48;40.92;100527.53;5006476;28;1053;-42
2022/08/05 11:59:40;;;;;;;;;;;;;;;25.33;41.26;100518.50;4992081;28;1717;-40
2022/08/05 12:02:05;;;;;;;;;;;;;;;25.07;42.01;100520.50;5015211;28;1022;-39
2022/08/05 12:04:38;;;;;;;;;;;;;;;25.03;45.87;100527.25;5014836;28;939;-39
2022/08/05 12:07:04;;;;;;;;;;;;;;;26.25;41.00;100532.22;5015204;28;1883;-41
2022/08/05 12:09:30;;;;;;;;;;;;;;;27.37;39.10;100536.94;5014200;28;1483;-40
2022/08/05 12:11:55;;;;;;;;;;;;;;;27.38;37.51;100534.03;4998655;28;919;-40
2022/08/05 12:14:20;;;;;;;;;;;;;;;26.17;39.62;100525.06;5014997;28;1396;-40
2022/08/05 12:16:46;;;;;;;;;;;;;;;25.47;40.96;100527.72;5014992;28;1173;-41
2022/08/05 12:19:11;;;;;;;;;;;;;;;25.04;42.10;100521.69;5008420;28;1213;-38
2022/08/05 12:21:46;;;;;;;;;;;;;;;24.88;42.49;100521.72;5015733;28;1069;-39
2022/08/05 12:24:18;;;;;;;;;;;;;;;24.63;43.20;100519.94;5012359;28;1343;-39
2022/08/05 12:26:45;;;;;;;;;;;;;;;24.89;45.96;100520.72;5010096;28;1914;-40
2022/08/05 12:29:12;;;;;;;;;;;;;;;26.41;42.12;100515.06;5016153;28;1202;-39
2022/08/05 12:31:37;;;;;;;;;;;;;;;26.27;41.40;100511.31;5018859;28;1327;-38
2022/08/05 12:34:03;;;;;;;;;;;;;;;25.61;42.21;100507.28;5018771;28;1243;-39
2022/08/05 12:36:28;;;;;;;;;;;;;;;25.12;42.79;100512.75;5013744;28;1225;-40
2022/08/05 12:38:54;;;;;;;;;;;;;;;24.80;43.26;100511.81;5031609;28;1304;-41
2022/08/05 12:41:20;;;;;;;;;;;;;;;24.62;43.75;100518.28;5014575;28;1307;-40
2022/08/05 12:43:58;;;;;;;;;;;;;;;24.55;43.88;100522.66;5018048;28;1220;-40
2022/08/05 12:46:24;;;;;;;;;;;;;;;25.21;43.82;100518.91;5027311;28;1901;-40
2022/08/05 12:48:56;;;;;;;;;;;;;;;26.76;40.70;100522.63;5001064;28;1153;-39
2022/08/05 12:51:21;;;;;;;;;;;;;;;27.53;38.91;100519.66;5016313;28;1177;-38